sensor_id;sensor_type;location;lat;lon;timestamp;temperature;humidity
51811;DHT22;52468;40.116;18.296;2023-02-01T00:01:13;8.50;50.50
51811;DHT22;52468;40.116;18.296;2023-02-01T00:03:41;8.50;50.70
51811;DHT22;52468;40.116;18.296;2023-02-01T00:06:09;8.40;50.90
51811;DHT22;52468;40.116;18.296;2023-02-01T00:08:37;8.40;50.90
51811;DHT22;52468;40.116;18.296;2023-02-01T00:11:10;8.30;50.90
51811;DHT22;52468;40.116;18.296;2023-02-01T00:13:40;8.30;50.50
51811;DHT22;52468;40.116;18.296;2023-02-01T00:16:11;8.30;50.40
51811;DHT22;52468;40.116;18.296;2023-02-01T00:18:46;8.40;50.00
51811;DHT22;52468;40.116;18.296;2023-02-01T00:21:16;8.40;49.90
51811;DHT22;52468;40.116;18.296;2023-02-01T00:23:45;8.30;49.90
51811;DHT22;52468;40.116;18.296;2023-02-01T00:26:15;8.30;50.10
51811;DHT22;52468;40.116;18.296;2023-02-01T00:28:44;8.20;50.30
51811;DHT22;52468;40.116;18.296;2023-02-01T00:31:14;8.10;50.50
51811;DHT22;52468;40.116;18.296;2023-02-01T00:33:42;8.10;50.90
51811;DHT22;52468;40.116;18.296;2023-02-01T00:36:10;8.00;51.10
51811;DHT22;52468;40.116;18.296;2023-02-01T00:38:38;8.00;51.00
51811;DHT22;52468;40.116;18.296;2023-02-01T00:46:07;8.20;50.50
51811;DHT22;52468;40.116;18.296;2023-02-01T00:48:35;7.80;51.70
51811;DHT22;52468;40.116;18.296;2023-02-01T00:51:06;7.70;52.00
51811;DHT22;52468;40.116;18.296;2023-02-01T00:53:35;7.70;52.30
51811;DHT22;52468;40.116;18.296;2023-02-01T00:56:03;7.60;52.60
51811;DHT22;52468;40.116;18.296;2023-02-01T00:58:33;7.60;52.60
51811;DHT22;52468;40.116;18.296;2023-02-01T01:03:32;7.60;53.00
51811;DHT22;52468;40.116;18.296;2023-02-01T01:06:03;7.50;53.10
51811;DHT22;52468;40.116;18.296;2023-02-01T01:08:32;7.60;53.10
51811;DHT22;52468;40.116;18.296;2023-02-01T01:11:08;7.60;52.90
51811;DHT22;52468;40.116;18.296;2023-02-01T01:13:36;7.60;52.90
51811;DHT22;52468;40.116;18.296;2023-02-01T01:16:06;7.70;52.70
51811;DHT22;52468;40.116;18.296;2023-02-01T01:18:35;7.70;52.40
51811;DHT22;52468;40.116;18.296;2023-02-01T01:21:05;7.80;52.20
51811;DHT22;52468;40.116;18.296;2023-02-01T01:23:34;7.80;51.90
51811;DHT22;52468;40.116;18.296;2023-02-01T01:26:07;7.80;51.70
51811;DHT22;52468;40.116;18.296;2023-02-01T01:28:35;7.70;51.80
51811;DHT22;52468;40.116;18.296;2023-02-01T01:31:03;7.70;51.80
51811;DHT22;52468;40.116;18.296;2023-02-01T01:33:31;7.70;51.80
51811;DHT22;52468;40.116;18.296;2023-02-01T01:35:59;7.60;51.80
51811;DHT22;52468;40.116;18.296;2023-02-01T01:38:27;7.60;51.80
51811;DHT22;52468;40.116;18.296;2023-02-01T01:40:55;7.60;51.90
51811;DHT22;52468;40.116;18.296;2023-02-01T01:43:23;7.50;51.90
51811;DHT22;52468;40.116;18.296;2023-02-01T01:45:54;7.60;51.90
51811;DHT22;52468;40.116;18.296;2023-02-01T01:48:24;7.60;51.70
51811;DHT22;52468;40.116;18.296;2023-02-01T01:51:09;7.60;51.50
51811;DHT22;52468;40.116;18.296;2023-02-01T01:53:48;7.60;51.40
51811;DHT22;52468;40.116;18.296;2023-02-01T01:56:17;7.70;51.00
51811;DHT22;52468;40.116;18.296;2023-02-01T01:58:45;7.80;51.00
51811;DHT22;52468;40.116;18.296;2023-02-01T02:01:13;7.80;50.80
51811;DHT22;52468;40.116;18.296;2023-02-01T02:03:42;7.80;50.80
51811;DHT22;52468;40.116;18.296;2023-02-01T02:09:04;7.90;50.80
51811;DHT22;52468;40.116;18.296;2023-02-01T02:11:33;7.80;51.00
51811;DHT22;52468;40.116;18.296;2023-02-01T02:14:02;7.80;51.10
51811;DHT22;52468;40.116;18.296;2023-02-01T02:24:48;7.60;52.10
51811;DHT22;52468;40.116;18.296;2023-02-01T02:35:57;7.50;53.10
51811;DHT22;52468;40.116;18.296;2023-02-01T02:38:33;7.50;53.30
51811;DHT22;52468;40.116;18.296;2023-02-01T02:44:10;7.50;53.60
51811;DHT22;52468;40.116;18.296;2023-02-01T02:47:03;7.40;53.70
51811;DHT22;52468;40.116;18.296;2023-02-01T02:50:09;7.40;53.90
51811;DHT22;52468;40.116;18.296;2023-02-01T02:55:56;7.40;53.80
51811;DHT22;52468;40.116;18.296;2023-02-01T02:58:45;7.30;53.90
51811;DHT22;52468;40.116;18.296;2023-02-01T03:01:32;7.30;54.00
51811;DHT22;52468;40.116;18.296;2023-02-01T03:04:19;7.20;54.30
51811;DHT22;52468;40.116;18.296;2023-02-01T03:06:49;7.20;54.50
51811;DHT22;52468;40.116;18.296;2023-02-01T03:09:31;7.30;54.60
51811;DHT22;52468;40.116;18.296;2023-02-01T03:12:03;7.20;54.80
51811;DHT22;52468;40.116;18.296;2023-02-01T03:14:56;7.20;55.00
51811;DHT22;52468;40.116;18.296;2023-02-01T03:17:30;7.20;55.00
51811;DHT22;52468;40.116;18.296;2023-02-01T03:20:01;7.20;55.00
51811;DHT22;52468;40.116;18.296;2023-02-01T03:22:31;7.20;55.10
51811;DHT22;52468;40.116;18.296;2023-02-01T03:25:23;7.20;55.20
51811;DHT22;52468;40.116;18.296;2023-02-01T03:27:57;7.20;55.30
51811;DHT22;52468;40.116;18.296;2023-02-01T03:30:36;7.10;55.10
51811;DHT22;52468;40.116;18.296;2023-02-01T03:33:07;7.00;55.40
51811;DHT22;52468;40.116;18.296;2023-02-01T03:35:47;7.00;55.60
51811;DHT22;52468;40.116;18.296;2023-02-01T03:38:25;6.90;56.00
51811;DHT22;52468;40.116;18.296;2023-02-01T03:43:34;6.70;56.20
51811;DHT22;52468;40.116;18.296;2023-02-01T03:46:11;6.60;56.40
51811;DHT22;52468;40.116;18.296;2023-02-01T03:48:40;6.60;56.60
51811;DHT22;52468;40.116;18.296;2023-02-01T03:51:09;6.50;56.90
51811;DHT22;52468;40.116;18.296;2023-02-01T03:53:40;6.40;57.00
51811;DHT22;52468;40.116;18.296;2023-02-01T03:56:09;6.40;57.20
51811;DHT22;52468;40.116;18.296;2023-02-01T03:58:39;6.40;57.30
51811;DHT22;52468;40.116;18.296;2023-02-01T04:01:07;6.40;57.50
51811;DHT22;52468;40.116;18.296;2023-02-01T04:03:38;6.30;57.50
51811;DHT22;52468;40.116;18.296;2023-02-01T04:06:06;6.20;58.00
51811;DHT22;52468;40.116;18.296;2023-02-01T04:08:34;6.20;58.20
51811;DHT22;52468;40.116;18.296;2023-02-01T04:11:02;6.20;58.40
51811;DHT22;52468;40.116;18.296;2023-02-01T04:13:29;6.10;58.80
51811;DHT22;52468;40.116;18.296;2023-02-01T04:15:58;6.10;58.90
51811;DHT22;52468;40.116;18.296;2023-02-01T04:18:25;6.10;58.90
51811;DHT22;52468;40.116;18.296;2023-02-01T04:20:53;6.10;59.10
51811;DHT22;52468;40.116;18.296;2023-02-01T04:23:21;6.20;59.20
51811;DHT22;52468;40.116;18.296;2023-02-01T04:25:48;6.20;59.30
51811;DHT22;52468;40.116;18.296;2023-02-01T04:28:17;6.30;59.20
51811;DHT22;52468;40.116;18.296;2023-02-01T04:30:46;6.40;59.00
51811;DHT22;52468;40.116;18.296;2023-02-01T04:33:13;6.50;58.80
51811;DHT22;52468;40.116;18.296;2023-02-01T04:35:41;6.50;58.70
51811;DHT22;52468;40.116;18.296;2023-02-01T04:38:09;6.50;58.80
51811;DHT22;52468;40.116;18.296;2023-02-01T04:40:37;6.50;58.70
51811;DHT22;52468;40.116;18.296;2023-02-01T04:43:05;6.50;58.80
51811;DHT22;52468;40.116;18.296;2023-02-01T04:45:33;6.50;58.60
51811;DHT22;52468;40.116;18.296;2023-02-01T04:48:01;6.50;58.50
51811;DHT22;52468;40.116;18.296;2023-02-01T04:50:29;6.40;58.50
51811;DHT22;52468;40.116;18.296;2023-02-01T04:52:56;6.40;58.30
51811;DHT22;52468;40.116;18.296;2023-02-01T04:55:24;6.30;58.50
51811;DHT22;52468;40.116;18.296;2023-02-01T04:57:52;6.20;58.80
51811;DHT22;52468;40.116;18.296;2023-02-01T05:00:20;6.10;59.00
51811;DHT22;52468;40.116;18.296;2023-02-01T05:02:48;6.10;59.10
51811;DHT22;52468;40.116;18.296;2023-02-01T05:05:16;6.10;59.40
51811;DHT22;52468;40.116;18.296;2023-02-01T05:07:45;6.00;59.60
51811;DHT22;52468;40.116;18.296;2023-02-01T05:10:14;6.00;59.90
51811;DHT22;52468;40.116;18.296;2023-02-01T05:12:43;6.00;60.10
51811;DHT22;52468;40.116;18.296;2023-02-01T05:15:30;6.00;59.90
51811;DHT22;52468;40.116;18.296;2023-02-01T05:17:58;6.00;60.20
51811;DHT22;52468;40.116;18.296;2023-02-01T05:20:26;6.00;60.30
51811;DHT22;52468;40.116;18.296;2023-02-01T05:22:54;6.00;60.30
51811;DHT22;52468;40.116;18.296;2023-02-01T05:25:22;6.00;60.50
51811;DHT22;52468;40.116;18.296;2023-02-01T05:27:50;5.90;60.50
51811;DHT22;52468;40.116;18.296;2023-02-01T05:30:18;5.90;60.80
51811;DHT22;52468;40.116;18.296;2023-02-01T05:32:49;5.80;61.30
51811;DHT22;52468;40.116;18.296;2023-02-01T05:35:17;5.70;61.70
51811;DHT22;52468;40.116;18.296;2023-02-01T05:37:45;5.60;62.10
51811;DHT22;52468;40.116;18.296;2023-02-01T05:40:13;5.70;62.10
51811;DHT22;52468;40.116;18.296;2023-02-01T05:42:41;5.70;62.00
51811;DHT22;52468;40.116;18.296;2023-02-01T05:45:09;5.60;62.30
51811;DHT22;52468;40.116;18.296;2023-02-01T05:47:37;5.70;62.20
51811;DHT22;52468;40.116;18.296;2023-02-01T05:50:05;5.60;62.20
51811;DHT22;52468;40.116;18.296;2023-02-01T05:52:33;5.60;62.30
51811;DHT22;52468;40.116;18.296;2023-02-01T05:55:01;5.50;62.60
51811;DHT22;52468;40.116;18.296;2023-02-01T05:57:29;5.50;62.90
51811;DHT22;52468;40.116;18.296;2023-02-01T05:59:57;5.40;63.40
51811;DHT22;52468;40.116;18.296;2023-02-01T06:02:26;5.30;63.60
51811;DHT22;52468;40.116;18.296;2023-02-01T06:04:54;5.20;64.10
51811;DHT22;52468;40.116;18.296;2023-02-01T06:07:22;5.20;64.30
51811;DHT22;52468;40.116;18.296;2023-02-01T06:09:52;5.10;64.80
51811;DHT22;52468;40.116;18.296;2023-02-01T06:12:20;5.10;64.90
51811;DHT22;52468;40.116;18.296;2023-02-01T06:14:48;5.20;65.00
51811;DHT22;52468;40.116;18.296;2023-02-01T06:17:15;5.20;65.20
51811;DHT22;52468;40.116;18.296;2023-02-01T06:19:44;5.20;65.40
51811;DHT22;52468;40.116;18.296;2023-02-01T06:22:12;5.30;65.40
51811;DHT22;52468;40.116;18.296;2023-02-01T06:24:40;5.40;65.50
51811;DHT22;52468;40.116;18.296;2023-02-01T06:27:08;5.50;65.60
51811;DHT22;52468;40.116;18.296;2023-02-01T06:29:36;5.60;65.50
51811;DHT22;52468;40.116;18.296;2023-02-01T06:32:04;5.70;65.40
51811;DHT22;52468;40.116;18.296;2023-02-01T06:34:32;5.70;65.40
51811;DHT22;52468;40.116;18.296;2023-02-01T06:37:00;5.70;65.40
51811;DHT22;52468;40.116;18.296;2023-02-01T06:39:28;5.80;65.40
51811;DHT22;52468;40.116;18.296;2023-02-01T06:41:56;6.00;65.00
51811;DHT22;52468;40.116;18.296;2023-02-01T06:44:24;6.10;64.70
51811;DHT22;52468;40.116;18.296;2023-02-01T06:46:51;6.20;64.60
51811;DHT22;52468;40.116;18.296;2023-02-01T06:49:19;6.30;64.30
51811;DHT22;52468;40.116;18.296;2023-02-01T06:51:47;6.50;64.00
51811;DHT22;52468;40.116;18.296;2023-02-01T06:54:15;6.60;63.90
51811;DHT22;52468;40.116;18.296;2023-02-01T06:56:43;6.60;63.60
51811;DHT22;52468;40.116;18.296;2023-02-01T06:59:11;6.60;63.60
51811;DHT22;52468;40.116;18.296;2023-02-01T07:01:39;6.80;63.70
51811;DHT22;52468;40.116;18.296;2023-02-01T07:04:10;7.00;63.40
51811;DHT22;52468;40.116;18.296;2023-02-01T07:06:38;7.00;63.10
51811;DHT22;52468;40.116;18.296;2023-02-01T07:09:07;7.10;62.90
51811;DHT22;52468;40.116;18.296;2023-02-01T07:11:35;7.40;62.70
51811;DHT22;52468;40.116;18.296;2023-02-01T07:14:04;7.50;62.30
51811;DHT22;52468;40.116;18.296;2023-02-01T07:16:32;7.60;62.10
51811;DHT22;52468;40.116;18.296;2023-02-01T07:19:00;7.70;62.20
51811;DHT22;52468;40.116;18.296;2023-02-01T07:21:28;7.80;62.00
51811;DHT22;52468;40.116;18.296;2023-02-01T07:23:57;8.00;62.00
51811;DHT22;52468;40.116;18.296;2023-02-01T07:26:25;8.10;61.70
51811;DHT22;52468;40.116;18.296;2023-02-01T07:28:53;8.20;61.50
51811;DHT22;52468;40.116;18.296;2023-02-01T07:31:21;8.30;61.40
51811;DHT22;52468;40.116;18.296;2023-02-01T07:33:49;8.40;61.20
51811;DHT22;52468;40.116;18.296;2023-02-01T07:36:20;8.60;61.20
51811;DHT22;52468;40.116;18.296;2023-02-01T07:38:48;8.70;60.90
51811;DHT22;52468;40.116;18.296;2023-02-01T07:41:16;8.80;61.00
51811;DHT22;52468;40.116;18.296;2023-02-01T07:43:44;9.00;60.80
51811;DHT22;52468;40.116;18.296;2023-02-01T07:46:13;9.10;60.60
51811;DHT22;52468;40.116;18.296;2023-02-01T07:48:42;9.10;60.60
51811;DHT22;52468;40.116;18.296;2023-02-01T07:51:13;9.20;60.80
51811;DHT22;52468;40.116;18.296;2023-02-01T07:53:42;9.50;60.40
51811;DHT22;52468;40.116;18.296;2023-02-01T07:56:16;9.60;59.90
51811;DHT22;52468;40.116;18.296;2023-02-01T07:58:49;9.60;60.00
51811;DHT22;52468;40.116;18.296;2023-02-01T08:01:21;9.80;59.60
51811;DHT22;52468;40.116;18.296;2023-02-01T08:04:02;9.90;59.60
51811;DHT22;52468;40.116;18.296;2023-02-01T08:06:32;10.00;59.20
51811;DHT22;52468;40.116;18.296;2023-02-01T08:09:02;10.10;59.20
51811;DHT22;52468;40.116;18.296;2023-02-01T08:11:30;10.30;58.70
51811;DHT22;52468;40.116;18.296;2023-02-01T08:13:58;10.30;58.80
51811;DHT22;52468;40.116;18.296;2023-02-01T08:16:26;10.60;58.20
51811;DHT22;52468;40.116;18.296;2023-02-01T08:18:54;10.60;58.00
51811;DHT22;52468;40.116;18.296;2023-02-01T08:21:25;10.70;57.90
51811;DHT22;52468;40.116;18.296;2023-02-01T08:23:53;10.90;57.50
51811;DHT22;52468;40.116;18.296;2023-02-01T08:26:23;10.90;57.50
51811;DHT22;52468;40.116;18.296;2023-02-01T08:28:55;10.90;57.50
51811;DHT22;52468;40.116;18.296;2023-02-01T08:31:25;11.00;57.60
51811;DHT22;52468;40.116;18.296;2023-02-01T08:33:56;11.10;57.60
51811;DHT22;52468;40.116;18.296;2023-02-01T08:36:27;11.40;57.00
51811;DHT22;52468;40.116;18.296;2023-02-01T08:38:55;11.50;56.50
51811;DHT22;52468;40.116;18.296;2023-02-01T08:41:27;11.50;56.20
51811;DHT22;52468;40.116;18.296;2023-02-01T08:43:56;11.70;56.30
51811;DHT22;52468;40.116;18.296;2023-02-01T08:46:24;11.90;55.60
51811;DHT22;52468;40.116;18.296;2023-02-01T08:48:52;12.00;55.10
51811;DHT22;52468;40.116;18.296;2023-02-01T08:51:22;12.10;54.90
51811;DHT22;52468;40.116;18.296;2023-02-01T08:53:50;12.20;54.10
51811;DHT22;52468;40.116;18.296;2023-02-01T08:56:19;12.30;53.80
51811;DHT22;52468;40.116;18.296;2023-02-01T08:58:47;12.40;52.40
51811;DHT22;52468;40.116;18.296;2023-02-01T09:01:16;12.30;52.90
51811;DHT22;52468;40.116;18.296;2023-02-01T09:03:44;12.40;52.40
51811;DHT22;52468;40.116;18.296;2023-02-01T09:06:14;12.50;51.90
51811;DHT22;52468;40.116;18.296;2023-02-01T09:08:42;12.50;51.60
51811;DHT22;52468;40.116;18.296;2023-02-01T09:11:13;12.60;51.60
51811;DHT22;52468;40.116;18.296;2023-02-01T09:13:41;12.60;51.60
51811;DHT22;52468;40.116;18.296;2023-02-01T09:16:10;12.80;51.10
51811;DHT22;52468;40.116;18.296;2023-02-01T09:18:38;12.90;50.80
51811;DHT22;52468;40.116;18.296;2023-02-01T09:21:08;12.90;50.10
51811;DHT22;52468;40.116;18.296;2023-02-01T09:23:36;13.00;49.50
51811;DHT22;52468;40.116;18.296;2023-02-01T09:26:04;13.10;49.90
51811;DHT22;52468;40.116;18.296;2023-02-01T09:28:32;13.20;49.50
51811;DHT22;52468;40.116;18.296;2023-02-01T09:31:01;13.10;49.30
51811;DHT22;52468;40.116;18.296;2023-02-01T09:33:29;13.10;49.80
51811;DHT22;52468;40.116;18.296;2023-02-01T09:35:58;13.20;50.00
51811;DHT22;52468;40.116;18.296;2023-02-01T09:38:27;13.40;49.60
51811;DHT22;52468;40.116;18.296;2023-02-01T09:40:55;13.30;49.90
51811;DHT22;52468;40.116;18.296;2023-02-01T09:48:43;13.50;48.80
51811;DHT22;52468;40.116;18.296;2023-02-01T09:51:40;13.60;47.90
51811;DHT22;52468;40.116;18.296;2023-02-01T09:54:16;13.50;47.10
51811;DHT22;52468;40.116;18.296;2023-02-01T10:02:02;13.70;46.90
51811;DHT22;52468;40.116;18.296;2023-02-01T10:04:31;13.80;46.70
51811;DHT22;52468;40.116;18.296;2023-02-01T10:10:21;13.80;45.90
51811;DHT22;52468;40.116;18.296;2023-02-01T10:15:40;14.00;45.80
51811;DHT22;52468;40.116;18.296;2023-02-01T10:18:29;14.20;45.70
51811;DHT22;52468;40.116;18.296;2023-02-01T10:24:41;14.00;45.40
51811;DHT22;52468;40.116;18.296;2023-02-01T10:27:17;14.00;46.00
51811;DHT22;52468;40.116;18.296;2023-02-01T10:29:53;14.20;46.10
51811;DHT22;52468;40.116;18.296;2023-02-01T10:32:27;14.50;45.80
51811;DHT22;52468;40.116;18.296;2023-02-01T10:35:02;14.60;45.70
51811;DHT22;52468;40.116;18.296;2023-02-01T10:37:35;14.70;45.40
51811;DHT22;52468;40.116;18.296;2023-02-01T10:40:30;14.90;44.70
51811;DHT22;52468;40.116;18.296;2023-02-01T10:42:59;14.90;44.70
51811;DHT22;52468;40.116;18.296;2023-02-01T10:45:29;15.00;44.30
51811;DHT22;52468;40.116;18.296;2023-02-01T10:48:00;15.00;44.20
51811;DHT22;52468;40.116;18.296;2023-02-01T10:50:51;14.70;44.70
51811;DHT22;52468;40.116;18.296;2023-02-01T10:53:48;14.50;45.50
51811;DHT22;52468;40.116;18.296;2023-02-01T10:56:26;14.30;45.30
51811;DHT22;52468;40.116;18.296;2023-02-01T10:59:03;14.40;45.70
51811;DHT22;52468;40.116;18.296;2023-02-01T11:01:33;14.60;45.50
51811;DHT22;52468;40.116;18.296;2023-02-01T11:04:04;14.90;44.30
51811;DHT22;52468;40.116;18.296;2023-02-01T11:06:34;14.80;44.40
51811;DHT22;52468;40.116;18.296;2023-02-01T11:14:22;14.90;44.60
51811;DHT22;52468;40.116;18.296;2023-02-01T11:16:58;14.90;44.90
51811;DHT22;52468;40.116;18.296;2023-02-01T11:19:28;15.00;44.40
51811;DHT22;52468;40.116;18.296;2023-02-01T11:21:59;15.10;44.20
51811;DHT22;52468;40.116;18.296;2023-02-01T11:24:32;15.30;43.70
51811;DHT22;52468;40.116;18.296;2023-02-01T11:27:03;15.40;42.90
51811;DHT22;52468;40.116;18.296;2023-02-01T11:29:43;15.50;42.60
51811;DHT22;52468;40.116;18.296;2023-02-01T11:32:13;15.30;42.40
51811;DHT22;52468;40.116;18.296;2023-02-01T11:34:59;15.00;43.10
51811;DHT22;52468;40.116;18.296;2023-02-01T11:37:33;14.80;43.70
51811;DHT22;52468;40.116;18.296;2023-02-01T11:40:23;15.00;44.10
51811;DHT22;52468;40.116;18.296;2023-02-01T11:43:07;15.30;43.80
51811;DHT22;52468;40.116;18.296;2023-02-01T11:45:35;15.30;43.50
51811;DHT22;52468;40.116;18.296;2023-02-01T11:48:10;15.50;43.00
51811;DHT22;52468;40.116;18.296;2023-02-01T11:56:36;15.30;42.50
51811;DHT22;52468;40.116;18.296;2023-02-01T12:05:04;15.10;43.20
51811;DHT22;52468;40.116;18.296;2023-02-01T12:13:19;15.40;42.40
51811;DHT22;52468;40.116;18.296;2023-02-01T12:22:12;15.30;42.30
51811;DHT22;52468;40.116;18.296;2023-02-01T12:35:59;15.40;41.90
51811;DHT22;52468;40.116;18.296;2023-02-01T12:38:49;15.30;42.10
51811;DHT22;52468;40.116;18.296;2023-02-01T12:44:32;15.20;42.20
51811;DHT22;52468;40.116;18.296;2023-02-01T12:47:12;15.20;41.60
51811;DHT22;52468;40.116;18.296;2023-02-01T12:49:49;15.20;41.30
51811;DHT22;52468;40.116;18.296;2023-02-01T12:52:28;15.10;41.90
51811;DHT22;52468;40.116;18.296;2023-02-01T12:55:10;15.20;41.70
51811;DHT22;52468;40.116;18.296;2023-02-01T12:57:45;15.20;41.30
51811;DHT22;52468;40.116;18.296;2023-02-01T13:00:43;15.30;41.70
51811;DHT22;52468;40.116;18.296;2023-02-01T13:11:24;15.50;41.60
51811;DHT22;52468;40.116;18.296;2023-02-01T13:16:45;15.40;42.70
51811;DHT22;52468;40.116;18.296;2023-02-01T13:21:54;15.60;42.20
51811;DHT22;52468;40.116;18.296;2023-02-01T13:24:38;15.60;41.80
51811;DHT22;52468;40.116;18.296;2023-02-01T13:27:14;15.50;41.80
51811;DHT22;52468;40.116;18.296;2023-02-01T13:29:53;15.50;41.50
51811;DHT22;52468;40.116;18.296;2023-02-01T13:40:44;15.50;42.60
51811;DHT22;52468;40.116;18.296;2023-02-01T13:43:32;15.30;43.10
51811;DHT22;52468;40.116;18.296;2023-02-01T13:46:06;15.40;43.00
51811;DHT22;52468;40.116;18.296;2023-02-01T13:48:41;15.50;42.90
51811;DHT22;52468;40.116;18.296;2023-02-01T13:51:13;15.40;42.80
51811;DHT22;52468;40.116;18.296;2023-02-01T13:53:47;15.30;42.40
51811;DHT22;52468;40.116;18.296;2023-02-01T13:56:18;15.40;43.00
51811;DHT22;52468;40.116;18.296;2023-02-01T13:58:48;15.50;43.50
51811;DHT22;52468;40.116;18.296;2023-02-01T14:03:57;15.50;43.10
51811;DHT22;52468;40.116;18.296;2023-02-01T14:11:49;15.50;43.20
51811;DHT22;52468;40.116;18.296;2023-02-01T14:19:27;15.00;43.50
51811;DHT22;52468;40.116;18.296;2023-02-01T14:21:58;14.90;43.10
51811;DHT22;52468;40.116;18.296;2023-02-01T14:24:33;14.90;43.40
51811;DHT22;52468;40.116;18.296;2023-02-01T14:27:19;15.00;42.60
51811;DHT22;52468;40.116;18.296;2023-02-01T14:29:55;15.00;42.60
51811;DHT22;52468;40.116;18.296;2023-02-01T14:32:31;14.80;43.20
51811;DHT22;52468;40.116;18.296;2023-02-01T14:35:05;14.90;43.70
51811;DHT22;52468;40.116;18.296;2023-02-01T14:37:35;14.90;44.30
51811;DHT22;52468;40.116;18.296;2023-02-01T15:01:25;13.90;44.80
51811;DHT22;52468;40.116;18.296;2023-02-01T15:06:38;13.60;45.10
51811;DHT22;52468;40.116;18.296;2023-02-01T15:12:23;13.30;46.00
51811;DHT22;52468;40.116;18.296;2023-02-01T15:15:21;13.30;46.60
51811;DHT22;52468;40.116;18.296;2023-02-01T15:17:52;13.10;47.30
51811;DHT22;52468;40.116;18.296;2023-02-01T15:20:28;13.00;47.90
51811;DHT22;52468;40.116;18.296;2023-02-01T15:23:04;13.00;48.00
51811;DHT22;52468;40.116;18.296;2023-02-01T15:25:35;12.80;48.20
51811;DHT22;52468;40.116;18.296;2023-02-01T15:28:05;12.70;48.60
51811;DHT22;52468;40.116;18.296;2023-02-01T15:30:37;12.60;48.80
51811;DHT22;52468;40.116;18.296;2023-02-01T15:33:16;12.50;49.30
51811;DHT22;52468;40.116;18.296;2023-02-01T15:38:40;12.20;51.50
51811;DHT22;52468;40.116;18.296;2023-02-01T15:41:14;12.00;51.80
51811;DHT22;52468;40.116;18.296;2023-02-01T15:44:02;11.90;52.40
51811;DHT22;52468;40.116;18.296;2023-02-01T15:46:36;11.70;53.00
51811;DHT22;52468;40.116;18.296;2023-02-01T15:51:46;11.40;54.00
51811;DHT22;52468;40.116;18.296;2023-02-01T15:54:32;11.30;54.20
51811;DHT22;52468;40.116;18.296;2023-02-01T15:57:01;11.10;54.70
51811;DHT22;52468;40.116;18.296;2023-02-01T15:59:35;11.00;55.40
51811;DHT22;52468;40.116;18.296;2023-02-01T16:02:28;10.80;56.50
51811;DHT22;52468;40.116;18.296;2023-02-01T16:04:56;10.60;56.80
51811;DHT22;52468;40.116;18.296;2023-02-01T16:07:32;10.60;57.10
51811;DHT22;52468;40.116;18.296;2023-02-01T16:10:27;10.40;57.60
51811;DHT22;52468;40.116;18.296;2023-02-01T16:12:50;10.30;58.30
51811;DHT22;52468;40.116;18.296;2023-02-01T16:15:23;10.10;58.80
51811;DHT22;52468;40.116;18.296;2023-02-01T16:17:51;10.00;59.10
51811;DHT22;52468;40.116;18.296;2023-02-01T16:20:20;10.00;59.60
51811;DHT22;52468;40.116;18.296;2023-02-01T16:22:48;9.80;60.10
51811;DHT22;52468;40.116;18.296;2023-02-01T16:25:15;9.70;60.40
51811;DHT22;52468;40.116;18.296;2023-02-01T16:27:43;9.70;60.80
51811;DHT22;52468;40.116;18.296;2023-02-01T16:30:11;9.60;61.30
51811;DHT22;52468;40.116;18.296;2023-02-01T16:32:39;9.50;61.70
51811;DHT22;52468;40.116;18.296;2023-02-01T16:35:17;9.40;62.00
51811;DHT22;52468;40.116;18.296;2023-02-01T16:37:48;9.40;62.40
51811;DHT22;52468;40.116;18.296;2023-02-01T16:40:17;9.30;62.70
51811;DHT22;52468;40.116;18.296;2023-02-01T16:42:46;9.20;63.00
51811;DHT22;52468;40.116;18.296;2023-02-01T16:45:15;9.20;63.20
51811;DHT22;52468;40.116;18.296;2023-02-01T16:47:48;9.10;63.00
51811;DHT22;52468;40.116;18.296;2023-02-01T16:50:22;9.10;63.30
51811;DHT22;52468;40.116;18.296;2023-02-01T16:52:51;9.00;63.80
51811;DHT22;52468;40.116;18.296;2023-02-01T16:55:21;9.00;63.60
51811;DHT22;52468;40.116;18.296;2023-02-01T16:57:49;9.00;63.50
51811;DHT22;52468;40.116;18.296;2023-02-01T17:00:18;9.00;63.40
51811;DHT22;52468;40.116;18.296;2023-02-01T17:02:52;9.00;63.50
51811;DHT22;52468;40.116;18.296;2023-02-01T17:05:20;8.90;63.50
51811;DHT22;52468;40.116;18.296;2023-02-01T17:07:50;8.90;63.60
51811;DHT22;52468;40.116;18.296;2023-02-01T17:10:23;8.80;63.70
51811;DHT22;52468;40.116;18.296;2023-02-01T17:13:01;8.80;63.90
51811;DHT22;52468;40.116;18.296;2023-02-01T17:15:32;8.80;64.10
51811;DHT22;52468;40.116;18.296;2023-02-01T17:18:02;8.80;64.10
51811;DHT22;52468;40.116;18.296;2023-02-01T17:20:31;8.70;64.40
51811;DHT22;52468;40.116;18.296;2023-02-01T17:22:59;8.60;64.80
51811;DHT22;52468;40.116;18.296;2023-02-01T17:25:28;8.70;64.90
51811;DHT22;52468;40.116;18.296;2023-02-01T17:27:56;8.70;65.10
51811;DHT22;52468;40.116;18.296;2023-02-01T17:30:24;8.60;65.70
51811;DHT22;52468;40.116;18.296;2023-02-01T17:32:52;8.60;65.80
51811;DHT22;52468;40.116;18.296;2023-02-01T17:35:24;8.60;66.30
51811;DHT22;52468;40.116;18.296;2023-02-01T17:37:53;8.50;67.20
51811;DHT22;52468;40.116;18.296;2023-02-01T17:40:21;8.50;67.20
51811;DHT22;52468;40.116;18.296;2023-02-01T17:42:49;8.40;67.50
51811;DHT22;52468;40.116;18.296;2023-02-01T17:45:34;8.40;67.80
51811;DHT22;52468;40.116;18.296;2023-02-01T17:48:06;8.50;67.90
51811;DHT22;52468;40.116;18.296;2023-02-01T17:50:36;8.40;68.20
51811;DHT22;52468;40.116;18.296;2023-02-01T17:53:05;8.40;68.40
51811;DHT22;52468;40.116;18.296;2023-02-01T17:55:39;8.30;68.70
51811;DHT22;52468;40.116;18.296;2023-02-01T17:58:11;8.20;68.80
51811;DHT22;52468;40.116;18.296;2023-02-01T18:00:40;8.20;69.10
51811;DHT22;52468;40.116;18.296;2023-02-01T18:03:28;8.20;69.10
51811;DHT22;52468;40.116;18.296;2023-02-01T18:05:57;8.10;69.00
51811;DHT22;52468;40.116;18.296;2023-02-01T18:08:28;8.10;69.10
51811;DHT22;52468;40.116;18.296;2023-02-01T18:10:57;8.10;69.00
51811;DHT22;52468;40.116;18.296;2023-02-01T18:13:28;8.00;68.90
51811;DHT22;52468;40.116;18.296;2023-02-01T18:15:57;8.00;68.80
51811;DHT22;52468;40.116;18.296;2023-02-01T18:18:30;7.90;69.00
51811;DHT22;52468;40.116;18.296;2023-02-01T18:21:00;7.90;69.00
51811;DHT22;52468;40.116;18.296;2023-02-01T18:23:28;7.80;69.30
51811;DHT22;52468;40.116;18.296;2023-02-01T18:25:55;7.70;69.40
51811;DHT22;52468;40.116;18.296;2023-02-01T18:28:23;7.70;69.60
51811;DHT22;52468;40.116;18.296;2023-02-01T18:30:51;7.70;69.60
51811;DHT22;52468;40.116;18.296;2023-02-01T18:33:20;7.70;69.70
51811;DHT22;52468;40.116;18.296;2023-02-01T18:35:48;7.70;69.60
51811;DHT22;52468;40.116;18.296;2023-02-01T18:38:16;7.60;69.70
51811;DHT22;52468;40.116;18.296;2023-02-01T18:40:54;7.60;69.60